createdAt,value
2022-12-01T00:00:17.215Z,8
2022-12-01T00:01:17.230Z,10
2022-12-01T00:02:17.385Z,13
2022-12-01T00:03:17.331Z,8
2022-12-01T00:04:17.224Z,9
2022-12-01T00:05:17.240Z,8
2022-12-01T00:06:17.214Z,10
2022-12-01T00:07:17.203Z,8
2022-12-01T00:08:17.241Z,10
2022-12-01T00:09:20.020Z,9
2022-12-01T00:10:17.238Z,9
2022-12-01T00:11:17.215Z,8
2022-12-01T00:12:17.230Z,9
2022-12-01T00:13:17.218Z,9
2022-12-01T00:15:17.214Z,9
2022-12-01T00:16:17.365Z,11
2022-12-01T00:17:17.211Z,9
2022-12-01T00:18:17.216Z,10
2022-12-01T00:19:17.222Z,11
2022-12-01T00:20:17.208Z,9
2022-12-01T00:21:17.217Z,10
2022-12-01T00:22:17.226Z,9
2022-12-01T00:23:17.287Z,9
2022-12-01T00:24:17.224Z,9
2022-12-01T00:25:17.210Z,9
2022-12-01T00:26:17.229Z,9
2022-12-01T00:27:17.205Z,8
2022-12-01T00:28:17.230Z,9
2022-12-01T00:29:17.220Z,12
2022-12-01T00:30:17.267Z,9
2022-12-01T00:31:17.335Z,9
2022-12-01T00:32:17.235Z,7
2022-12-01T00:33:17.212Z,10
2022-12-01T00:35:17.211Z,9
2022-12-01T00:36:17.215Z,9
2022-12-01T00:37:17.234Z,9
2022-12-01T00:38:17.211Z,9
2022-12-01T00:39:17.284Z,9
2022-12-01T00:40:17.204Z,9
2022-12-01T00:41:17.219Z,9
2022-12-01T00:42:17.216Z,11
2022-12-01T00:43:17.216Z,9
2022-12-01T00:44:17.228Z,10
2022-12-01T00:45:17.223Z,12
2022-12-01T00:46:17.330Z,10
2022-12-01T00:47:17.214Z,9
2022-12-01T00:48:17.258Z,9
2022-12-01T00:49:17.220Z,8
2022-12-01T00:50:17.237Z,9
2022-12-01T00:51:17.221Z,11
2022-12-01T00:52:17.225Z,11
2022-12-01T00:53:17.307Z,10
2022-12-01T00:54:17.218Z,9
2022-12-01T00:55:17.226Z,10
2022-12-01T00:56:17.217Z,10
2022-12-01T00:57:17.208Z,11
2022-12-01T00:58:17.223Z,10
2022-12-01T00:59:17.224Z,10
2022-12-01T01:00:17.222Z,9
2022-12-01T01:01:17.289Z,10
2022-12-01T01:02:17.290Z,8
2022-12-01T01:03:17.215Z,9
2022-12-01T01:04:17.213Z,14
2022-12-01T01:05:17.220Z,10
2022-12-01T01:06:17.219Z,11
2022-12-01T01:07:17.221Z,12
2022-12-01T01:08:17.222Z,10
2022-12-01T01:09:17.208Z,10
2022-12-01T01:10:17.360Z,9
2022-12-01T01:11:17.219Z,10
2022-12-01T01:12:17.215Z,10
2022-12-01T01:13:17.234Z,10
2022-12-01T01:14:17.216Z,11
2022-12-01T01:15:17.204Z,10
2022-12-01T01:16:17.290Z,7
2022-12-01T01:17:17.207Z,10
2022-12-01T01:18:17.204Z,10
2022-12-01T01:19:17.207Z,12
2022-12-01T01:20:17.206Z,10
2022-12-01T01:21:17.211Z,10
2022-12-01T01:22:17.214Z,8
2022-12-01T01:23:17.266Z,10
2022-12-01T01:24:17.220Z,10
2022-12-01T01:25:17.225Z,10
2022-12-01T01:26:17.228Z,11
2022-12-01T01:27:17.218Z,10
2022-12-01T01:28:17.214Z,9
2022-12-01T01:29:17.201Z,10
2022-12-01T01:30:17.293Z,9
2022-12-01T01:31:17.288Z,10
2022-12-01T01:32:17.202Z,10
2022-12-01T01:33:17.207Z,12
2022-12-01T01:34:17.216Z,9
2022-12-01T01:35:17.233Z,10
2022-12-01T01:36:17.216Z,11
2022-12-01T01:37:17.211Z,10
2022-12-01T01:38:17.215Z,10
2022-12-01T01:39:17.303Z,10
2022-12-01T01:40:17.201Z,10
2022-12-01T01:41:17.225Z,9
2022-12-01T01:42:17.212Z,10
2022-12-01T01:43:17.226Z,11
2022-12-01T01:44:17.216Z,10
2022-12-01T01:45:17.215Z,9
2022-12-01T01:46:27.282Z,12
2022-12-01T01:47:17.215Z,11
2022-12-01T01:48:17.220Z,10
2022-12-01T01:49:17.236Z,9
2022-12-01T01:50:17.214Z,10
2022-12-01T01:51:17.224Z,10
2022-12-01T01:52:17.206Z,12
2022-12-01T01:53:17.214Z,10
2022-12-01T01:54:17.223Z,12
2022-12-01T01:55:17.201Z,11
2022-12-01T01:56:17.207Z,11
2022-12-01T01:57:17.213Z,9
2022-12-01T01:58:17.213Z,8
2022-12-01T01:59:17.211Z,9
2022-12-01T02:00:17.219Z,10
2022-12-01T02:01:17.413Z,9
2022-12-01T02:02:17.288Z,10
2022-12-01T02:03:17.221Z,9
2022-12-01T02:04:17.215Z,9
2022-12-01T02:05:17.219Z,10
2022-12-01T02:06:17.211Z,9
2022-12-01T02:07:17.215Z,10
2022-12-01T02:08:17.217Z,11
2022-12-01T02:09:17.225Z,9
2022-12-01T02:10:17.228Z,9
2022-12-01T02:11:17.266Z,9
2022-12-01T02:12:17.232Z,9
2022-12-01T02:13:17.216Z,9
2022-12-01T02:14:17.208Z,9
2022-12-01T02:15:17.216Z,10
2022-12-01T02:16:17.275Z,9
2022-12-01T02:17:17.208Z,11
2022-12-01T02:18:17.259Z,11
2022-12-01T02:19:17.215Z,11
2022-12-01T02:20:17.226Z,9
2022-12-01T02:21:17.212Z,10
2022-12-01T02:22:17.200Z,10
2022-12-01T02:23:17.201Z,11
2022-12-01T02:24:17.216Z,12
2022-12-01T02:25:17.263Z,9
2022-12-01T02:26:17.203Z,9
2022-12-01T02:27:17.202Z,10
2022-12-01T02:28:17.216Z,11
2022-12-01T02:29:17.201Z,12
2022-12-01T02:30:17.208Z,8
2022-12-01T02:31:17.281Z,10
2022-12-01T02:32:17.211Z,13
2022-12-01T02:33:17.207Z,11
2022-12-01T02:34:17.215Z,8
2022-12-01T02:35:17.215Z,12
2022-12-01T02:36:17.211Z,9
2022-12-01T02:37:17.205Z,10
2022-12-01T02:38:17.210Z,10
2022-12-01T02:39:17.209Z,12
2022-12-01T02:40:17.205Z,9
2022-12-01T02:41:17.208Z,9
2022-12-01T02:42:17.203Z,9
2022-12-01T02:43:17.237Z,11
2022-12-01T02:44:17.209Z,10
2022-12-01T02:45:17.201Z,12
2022-12-01T02:46:33.540Z,8
2022-12-01T02:47:17.221Z,10
2022-12-01T02:48:17.259Z,9
2022-12-01T02:49:17.200Z,10
2022-12-01T02:50:17.216Z,10
2022-12-01T02:51:17.206Z,9
2022-12-01T02:52:17.220Z,9
2022-12-01T02:53:17.203Z,10
2022-12-01T02:54:17.217Z,10
2022-12-01T02:55:17.260Z,11
2022-12-01T02:56:17.220Z,9
2022-12-01T02:57:17.219Z,9
2022-12-01T02:58:17.206Z,10
2022-12-01T02:59:17.216Z,9
2022-12-01T03:00:17.222Z,10
2022-12-01T03:01:17.260Z,10
2022-12-01T03:02:17.327Z,10
2022-12-01T03:03:17.208Z,10
2022-12-01T03:04:17.214Z,10
2022-12-01T03:05:17.208Z,8
2022-12-01T03:06:17.206Z,10
2022-12-01T03:07:17.198Z,10
2022-12-01T03:08:17.208Z,9
2022-12-01T03:09:17.206Z,11
2022-12-01T03:10:17.203Z,14
2022-12-01T03:11:17.216Z,13
2022-12-01T03:12:17.202Z,11
2022-12-01T03:13:17.196Z,11
2022-12-01T03:14:17.248Z,13
2022-12-01T03:15:17.212Z,11
2022-12-01T03:16:17.234Z,11
2022-12-01T03:17:17.212Z,11
2022-12-01T03:18:17.226Z,11
2022-12-01T03:19:17.219Z,11
2022-12-01T03:20:17.201Z,12
2022-12-01T03:21:17.236Z,12
2022-12-01T03:22:17.211Z,10
2022-12-01T03:23:17.201Z,11
2022-12-01T03:24:17.199Z,11
2022-12-01T03:25:17.215Z,12
2022-12-01T03:26:17.213Z,12
2022-12-01T03:27:17.204Z,12
2022-12-01T03:28:21.946Z,12
2022-12-01T03:29:17.208Z,11
2022-12-01T03:30:17.250Z,13
2022-12-01T03:31:17.317Z,11
2022-12-01T03:32:17.223Z,14
2022-12-01T03:33:17.203Z,12
2022-12-01T03:34:17.205Z,11
2022-12-01T03:35:17.201Z,12
2022-12-01T03:36:17.215Z,10
2022-12-01T03:37:17.197Z,12
2022-12-01T03:38:17.195Z,11
2022-12-01T03:39:17.207Z,11
2022-12-01T03:40:17.194Z,12
2022-12-01T03:41:17.218Z,12
2022-12-01T03:42:17.211Z,11
2022-12-01T03:43:17.199Z,12
2022-12-01T03:44:17.209Z,10
2022-12-01T03:45:17.234Z,13
2022-12-01T03:46:39.528Z,11
2022-12-01T03:47:17.209Z,10
2022-12-01T03:48:17.199Z,12
2022-12-01T03:49:17.193Z,11
2022-12-01T03:50:17.212Z,12
2022-12-01T03:51:17.213Z,12
2022-12-01T03:52:17.213Z,11
2022-12-01T03:53:17.201Z,12
2022-12-01T03:54:17.255Z,11
2022-12-01T03:55:17.202Z,11
2022-12-01T03:56:17.211Z,12
2022-12-01T03:57:17.196Z,13
2022-12-01T03:58:17.217Z,12
2022-12-01T03:59:17.204Z,14
2022-12-01T04:00:17.211Z,14
2022-12-01T04:01:17.222Z,13
2022-12-01T04:02:17.197Z,15
2022-12-01T04:03:17.220Z,13
2022-12-01T04:04:17.211Z,15
2022-12-01T04:05:21.159Z,12
2022-12-01T04:06:17.196Z,14
2022-12-01T04:07:17.273Z,12
2022-12-01T04:08:17.203Z,12
2022-12-01T04:09:17.198Z,14
2022-12-01T04:10:17.240Z,12
2022-12-01T04:11:17.195Z,14
2022-12-01T04:12:17.197Z,11
2022-12-01T04:13:17.199Z,13
2022-12-01T04:14:17.250Z,11
2022-12-01T04:15:17.200Z,14
2022-12-01T04:16:17.300Z,13
2022-12-01T04:17:17.215Z,11
2022-12-01T04:18:17.201Z,13
2022-12-01T04:19:17.197Z,12
2022-12-01T04:20:17.214Z,12
2022-12-01T04:21:17.233Z,13
2022-12-01T04:22:17.211Z,13
2022-12-01T04:23:17.203Z,14
2022-12-01T04:24:17.200Z,14
2022-12-01T04:25:17.237Z,12
2022-12-01T04:26:17.190Z,12
2022-12-01T04:27:17.218Z,15
2022-12-01T04:28:17.205Z,13
2022-12-01T04:29:17.212Z,13
2022-12-01T04:30:17.204Z,14
2022-12-01T04:31:17.293Z,13
2022-12-01T04:32:17.202Z,14
2022-12-01T04:33:17.192Z,13
2022-12-01T04:34:17.203Z,12
2022-12-01T04:35:17.260Z,16
2022-12-01T04:36:17.204Z,12
2022-12-01T04:37:17.196Z,14
2022-12-01T04:38:17.198Z,15
2022-12-01T04:39:17.203Z,18
2022-12-01T04:40:17.191Z,14
2022-12-01T04:41:17.224Z,14
2022-12-01T04:42:17.280Z,14
2022-12-01T04:43:17.205Z,15
2022-12-01T04:44:17.208Z,17
2022-12-01T04:45:17.204Z,15
2022-12-01T04:47:17.244Z,16
2022-12-01T04:48:17.212Z,14
2022-12-01T04:49:17.212Z,16
2022-12-01T04:50:17.200Z,15
2022-12-01T04:51:17.206Z,15
2022-12-01T04:52:17.201Z,15
2022-12-01T04:53:17.201Z,15
2022-12-01T04:54:17.214Z,16
2022-12-01T04:55:17.217Z,17
2022-12-01T04:56:17.212Z,16
2022-12-01T04:57:17.198Z,14
2022-12-01T04:58:17.205Z,18
2022-12-01T04:59:17.188Z,15
2022-12-01T05:00:17.209Z,16
2022-12-01T05:01:17.314Z,17
2022-12-01T05:02:17.274Z,17
2022-12-01T05:03:17.270Z,17
2022-12-01T05:04:17.198Z,15
2022-12-01T05:05:17.281Z,15
2022-12-01T05:06:17.210Z,16
2022-12-01T05:07:17.207Z,18
2022-12-01T05:08:17.203Z,16
2022-12-01T05:09:18.002Z,17
2022-12-01T05:10:17.212Z,15
2022-12-01T05:11:17.206Z,17
2022-12-01T05:12:17.193Z,17
2022-12-01T05:13:17.200Z,17
2022-12-01T05:14:17.204Z,16
2022-12-01T05:15:17.200Z,16
2022-12-01T05:16:17.280Z,19
2022-12-01T05:17:17.274Z,18
2022-12-01T05:18:17.272Z,16
2022-12-01T05:19:17.213Z,18
2022-12-01T05:20:17.207Z,17
2022-12-01T05:21:17.227Z,15
2022-12-01T05:22:20.415Z,17
2022-12-01T05:23:17.388Z,16
2022-12-01T05:24:17.209Z,17
2022-12-01T05:25:17.202Z,17
2022-12-01T05:27:17.195Z,18
2022-12-01T05:28:17.198Z,19
2022-12-01T05:29:17.200Z,19
2022-12-01T05:30:17.202Z,19
2022-12-01T05:31:17.297Z,18
2022-12-01T05:32:17.192Z,20
2022-12-01T05:33:17.207Z,16
2022-12-01T05:34:17.198Z,17
2022-12-01T05:35:17.212Z,19
2022-12-01T05:36:17.201Z,17
2022-12-01T05:37:17.199Z,16
2022-12-01T05:38:17.197Z,16
2022-12-01T05:39:17.191Z,17
2022-12-01T05:40:17.206Z,17
2022-12-01T05:41:17.207Z,18
2022-12-01T05:42:17.195Z,19
2022-12-01T05:43:17.212Z,16
2022-12-01T05:44:17.201Z,20
2022-12-01T05:45:17.193Z,17
2022-12-01T05:46:17.294Z,18
2022-12-01T05:47:17.261Z,17
2022-12-01T05:48:17.212Z,17
2022-12-01T05:49:17.224Z,16
2022-12-01T05:50:17.194Z,20
2022-12-01T05:51:17.205Z,21
2022-12-01T05:52:17.195Z,18
2022-12-01T05:53:17.207Z,17
2022-12-01T05:54:17.205Z,18
2022-12-01T05:55:17.250Z,18
2022-12-01T05:56:17.398Z,21
2022-12-01T05:57:17.195Z,19
2022-12-01T05:58:17.224Z,18
2022-12-01T05:59:17.193Z,22
2022-12-01T06:00:17.197Z,20
2022-12-01T06:01:17.215Z,19
2022-12-01T06:02:17.228Z,19
2022-12-01T06:03:17.193Z,19
2022-12-01T06:04:17.277Z,22
2022-12-01T06:05:17.214Z,20
2022-12-01T06:06:17.197Z,22
2022-12-01T06:07:17.200Z,22
2022-12-01T06:08:17.255Z,21
2022-12-01T06:09:17.211Z,19
2022-12-01T06:10:17.193Z,21
2022-12-01T06:11:17.190Z,22
2022-12-01T06:12:17.197Z,21
2022-12-01T06:13:17.226Z,20
2022-12-01T06:14:17.198Z,21
2022-12-01T06:15:17.262Z,20
2022-12-01T06:16:17.256Z,22
2022-12-01T06:17:17.206Z,20
2022-12-01T06:18:17.222Z,18
2022-12-01T06:19:17.213Z,21
2022-12-01T06:20:17.215Z,22
2022-12-01T06:21:17.213Z,18
2022-12-01T06:22:17.236Z,21
2022-12-01T06:23:17.195Z,22
2022-12-01T06:24:17.205Z,20
2022-12-01T06:25:17.199Z,20
2022-12-01T06:26:17.199Z,21
2022-12-01T06:27:17.210Z,19
2022-12-01T06:28:17.207Z,21
2022-12-01T06:29:17.268Z,20
2022-12-01T06:30:17.201Z,21
2022-12-01T06:31:17.245Z,21
2022-12-01T06:32:17.207Z,21
2022-12-01T06:33:17.215Z,22
2022-12-01T06:34:17.196Z,22
2022-12-01T06:35:17.207Z,22
2022-12-01T06:36:17.264Z,19
2022-12-01T06:37:17.232Z,20
2022-12-01T06:38:17.201Z,23
2022-12-01T06:39:17.196Z,21
2022-12-01T06:40:17.198Z,19
2022-12-01T06:41:17.230Z,21
2022-12-01T06:42:17.195Z,24
2022-12-01T06:43:17.321Z,21
2022-12-01T06:44:17.195Z,23
2022-12-01T06:45:17.211Z,21
2022-12-01T06:46:17.250Z,20
2022-12-01T06:47:17.204Z,20
2022-12-01T06:48:17.196Z,22
2022-12-01T06:49:17.195Z,27
2022-12-01T06:50:17.295Z,21
2022-12-01T06:51:17.318Z,18
2022-12-01T06:52:17.191Z,21
2022-12-01T06:53:17.205Z,23
2022-12-01T06:54:17.202Z,21
2022-12-01T06:55:17.210Z,24
2022-12-01T06:56:17.217Z,21
2022-12-01T06:57:17.202Z,21
2022-12-01T06:58:17.200Z,22
2022-12-01T06:59:17.197Z,21
2022-12-01T07:00:17.196Z,22
2022-12-01T07:01:17.227Z,20
2022-12-01T07:02:17.256Z,20
2022-12-01T07:03:17.193Z,21
2022-12-01T07:04:17.192Z,22
2022-12-01T07:05:17.197Z,21
2022-12-01T07:06:17.224Z,20
2022-12-01T07:07:35.481Z,20
2022-12-01T07:08:17.260Z,25
2022-12-01T07:09:17.193Z,20
2022-12-01T07:10:17.195Z,22
2022-12-01T07:11:17.243Z,20
2022-12-01T07:12:17.362Z,22
2022-12-01T07:13:17.201Z,22
2022-12-01T07:14:17.208Z,23
2022-12-01T07:15:17.206Z,21
2022-12-01T07:16:17.281Z,22
2022-12-01T07:17:17.190Z,19
2022-12-01T07:18:17.192Z,20
2022-12-01T07:19:17.187Z,22
2022-12-01T07:20:17.202Z,21
2022-12-01T07:21:17.195Z,23
2022-12-01T07:22:17.279Z,20
2022-12-01T07:23:17.207Z,19
2022-12-01T07:24:17.199Z,21
2022-12-01T07:25:17.220Z,20
2022-12-01T07:26:17.194Z,19
2022-12-01T07:27:17.210Z,20
2022-12-01T07:28:17.187Z,20
2022-12-01T07:29:17.232Z,22
2022-12-01T07:30:17.192Z,21
2022-12-01T07:31:17.295Z,22
2022-12-01T07:32:17.208Z,19
2022-12-01T07:33:17.186Z,19
2022-12-01T07:34:17.191Z,22
2022-12-01T07:35:17.196Z,21
2022-12-01T07:36:17.242Z,21
2022-12-01T07:37:17.210Z,24
2022-12-01T07:38:21.891Z,24
2022-12-01T07:39:17.225Z,20
2022-12-01T07:40:17.198Z,18
2022-12-01T07:41:17.199Z,20
2022-12-01T07:42:17.200Z,21
2022-12-01T07:43:17.198Z,22
2022-12-01T07:44:17.189Z,26
2022-12-01T07:45:17.198Z,23
2022-12-01T07:46:22.260Z,24
2022-12-01T07:47:17.196Z,25
2022-12-01T07:48:17.192Z,23
2022-12-01T07:49:17.196Z,22
2022-12-01T07:50:17.269Z,23
2022-12-01T07:51:17.208Z,27
2022-12-01T07:52:17.182Z,23
2022-12-01T07:53:17.230Z,26
2022-12-01T07:54:17.205Z,22
2022-12-01T07:55:17.215Z,24
2022-12-01T07:56:17.191Z,23
2022-12-01T07:57:17.208Z,24
2022-12-01T07:58:17.211Z,25
2022-12-01T07:59:17.198Z,21
2022-12-01T08:00:17.200Z,23
2022-12-01T08:01:17.346Z,29
2022-12-01T08:02:17.370Z,26
2022-12-01T08:03:17.270Z,23
2022-12-01T08:04:17.193Z,24
2022-12-01T08:05:17.206Z,22
2022-12-01T08:06:17.215Z,22
2022-12-01T08:08:17.275Z,22
2022-12-01T08:09:17.193Z,23
2022-12-01T08:10:17.198Z,22
2022-12-01T08:11:17.218Z,24
2022-12-01T08:12:17.207Z,24
2022-12-01T08:13:17.696Z,24
2022-12-01T08:14:17.190Z,24
2022-12-01T08:15:17.198Z,22
2022-12-01T08:16:17.263Z,23
2022-12-01T08:17:33.480Z,23
2022-12-01T08:18:17.193Z,22
2022-12-01T08:19:17.220Z,22
2022-12-01T08:20:22.320Z,23
2022-12-01T08:21:17.186Z,22
2022-12-01T08:22:17.257Z,23
2022-12-01T08:23:17.229Z,24
2022-12-01T08:24:17.216Z,22
2022-12-01T08:25:17.216Z,20
2022-12-01T08:26:17.223Z,23
2022-12-01T08:27:17.202Z,21
2022-12-01T08:28:17.185Z,22
2022-12-01T08:29:20.432Z,21
2022-12-01T08:30:17.193Z,21
2022-12-01T08:31:17.303Z,20
2022-12-01T08:32:17.190Z,24
2022-12-01T08:33:17.186Z,22
2022-12-01T08:34:17.228Z,24
2022-12-01T08:35:17.197Z,22
2022-12-01T08:36:17.261Z,27
2022-12-01T08:37:17.190Z,24
2022-12-01T08:38:17.236Z,24
2022-12-01T08:39:17.210Z,25
2022-12-01T08:40:17.183Z,27
2022-12-01T08:41:17.212Z,27
2022-12-01T08:42:17.195Z,25
2022-12-01T08:43:41.469Z,22
2022-12-01T08:44:17.244Z,25
2022-12-01T08:45:17.194Z,24
2022-12-01T08:46:17.216Z,22
2022-12-01T08:47:18.912Z,25
2022-12-01T08:48:17.187Z,25
2022-12-01T08:49:17.198Z,23
2022-12-01T08:50:17.196Z,22
2022-12-01T08:51:17.186Z,23
2022-12-01T08:52:17.201Z,19
2022-12-01T08:53:17.191Z,22
2022-12-01T08:54:17.195Z,21
2022-12-01T08:55:17.221Z,22
2022-12-01T08:56:17.180Z,21
2022-12-01T08:57:17.196Z,22
2022-12-01T08:58:17.192Z,21
2022-12-01T08:59:17.196Z,19
2022-12-01T09:00:17.194Z,20
2022-12-01T09:01:17.333Z,21
2022-12-01T09:02:17.207Z,19
2022-12-01T09:03:17.219Z,19
2022-12-01T09:04:17.202Z,18
2022-12-01T09:05:17.185Z,21
2022-12-01T09:06:17.183Z,17
2022-12-01T09:07:20.266Z,20
2022-12-01T09:08:17.326Z,20
2022-12-01T09:09:17.198Z,20
2022-12-01T09:10:17.198Z,18
2022-12-01T09:11:17.190Z,15
2022-12-01T09:12:17.202Z,15
2022-12-01T09:13:17.200Z,19
2022-12-01T09:14:17.199Z,18
2022-12-01T09:15:17.202Z,18
2022-12-01T09:16:17.317Z,16
2022-12-01T09:17:39.448Z,17
2022-12-01T09:18:17.195Z,16
2022-12-01T09:19:23.638Z,15
2022-12-01T09:20:17.191Z,17
2022-12-01T09:21:17.199Z,16
2022-12-01T09:22:17.503Z,17
2022-12-01T09:23:17.198Z,17
2022-12-01T09:24:17.193Z,15
2022-12-01T09:25:17.216Z,16
2022-12-01T09:26:17.221Z,15
2022-12-01T09:27:17.194Z,16
2022-12-01T09:28:17.181Z,16
2022-12-01T09:29:17.199Z,18
2022-12-01T09:30:17.206Z,17
2022-12-01T09:31:17.209Z,15
2022-12-01T09:32:17.197Z,15
2022-12-01T09:33:17.211Z,17
2022-12-01T09:34:17.186Z,18
2022-12-01T09:35:22.038Z,14
2022-12-01T09:36:17.194Z,16
2022-12-01T09:37:17.176Z,16
2022-12-01T09:38:17.194Z,17
2022-12-01T09:39:17.185Z,15
2022-12-01T09:40:17.205Z,18
2022-12-01T09:41:17.191Z,16
2022-12-01T09:42:17.188Z,18
2022-12-01T09:43:17.195Z,17
2022-12-01T09:44:17.192Z,15
2022-12-01T09:45:17.189Z,15
2022-12-01T09:46:17.231Z,14
2022-12-01T09:47:17.193Z,14
2022-12-01T09:48:17.280Z,14
2022-12-01T09:49:17.222Z,16
2022-12-01T09:50:17.265Z,12
2022-12-01T09:51:17.222Z,17
2022-12-01T09:52:17.190Z,16
2022-12-01T09:53:17.191Z,14
2022-12-01T09:54:17.199Z,19
2022-12-01T09:55:17.190Z,16
2022-12-01T09:56:17.198Z,19
2022-12-01T09:57:17.269Z,14
2022-12-01T09:58:17.200Z,15
2022-12-01T09:59:17.198Z,14
2022-12-01T10:00:17.192Z,12
2022-12-01T10:01:17.321Z,15
2022-12-01T10:02:17.237Z,16
2022-12-01T10:03:17.197Z,14
2022-12-01T10:04:17.221Z,14
2022-12-01T10:05:17.259Z,15
2022-12-01T10:06:32.451Z,15
2022-12-01T10:07:17.189Z,14
2022-12-01T10:08:17.980Z,14
2022-12-01T10:09:17.186Z,16
2022-12-01T10:10:17.206Z,14
2022-12-01T10:11:17.185Z,14
2022-12-01T10:12:17.223Z,14
2022-12-01T10:13:17.193Z,14
2022-12-01T10:14:19.956Z,12
2022-12-01T10:15:17.199Z,13
2022-12-01T10:16:17.228Z,13
2022-12-01T10:18:17.187Z,12
2022-12-01T10:19:17.188Z,12
2022-12-01T10:20:17.189Z,13
2022-12-01T10:21:17.179Z,13
2022-12-01T10:22:17.179Z,13
2022-12-01T10:23:17.274Z,15
2022-12-01T10:24:17.189Z,12
2022-12-01T10:25:17.195Z,13
2022-12-01T10:26:17.203Z,12
2022-12-01T10:27:17.175Z,11
2022-12-01T10:28:17.213Z,10
2022-12-01T10:29:17.201Z,12
2022-12-01T10:30:17.183Z,12
2022-12-01T10:31:17.248Z,11
2022-12-01T10:32:17.226Z,12
2022-12-01T10:33:17.190Z,11
2022-12-01T10:34:17.210Z,10
2022-12-01T10:35:17.200Z,10
2022-12-01T10:36:17.175Z,10
2022-12-01T10:37:17.264Z,10
2022-12-01T10:38:17.197Z,10
2022-12-01T10:39:17.189Z,11
2022-12-01T10:40:17.184Z,10
2022-12-01T10:41:17.179Z,10
2022-12-01T10:42:17.191Z,12
2022-12-01T10:43:17.183Z,13
2022-12-01T10:44:17.184Z,13
2022-12-01T10:45:17.193Z,12
2022-12-01T10:46:17.209Z,12
2022-12-01T10:47:17.185Z,13
2022-12-01T10:48:17.205Z,12
2022-12-01T10:49:17.206Z,12
2022-12-01T10:50:17.259Z,11
2022-12-01T10:51:17.175Z,11
2022-12-01T10:52:17.194Z,12
2022-12-01T10:53:17.193Z,12
2022-12-01T10:54:17.188Z,11
2022-12-01T10:55:17.178Z,11
2022-12-01T10:56:17.209Z,12
2022-12-01T10:57:17.190Z,12
2022-12-01T10:58:17.205Z,12
2022-12-01T10:59:17.211Z,13
2022-12-01T11:00:36.235Z,12
2022-12-01T11:01:17.322Z,11
2022-12-01T11:02:17.400Z,13
2022-12-01T11:03:21.556Z,11
2022-12-01T11:04:17.203Z,12
2022-12-01T11:05:17.190Z,12
2022-12-01T11:06:17.188Z,12
2022-12-01T11:07:17.198Z,12
2022-12-01T11:08:17.188Z,10
2022-12-01T11:09:20.242Z,11
2022-12-01T11:10:17.181Z,12
2022-12-01T11:11:17.199Z,12
2022-12-01T11:12:17.188Z,11
2022-12-01T11:13:17.179Z,14
2022-12-01T11:14:17.193Z,12
2022-12-01T11:15:17.191Z,12
2022-12-01T11:16:17.206Z,12
2022-12-01T11:17:17.187Z,12
2022-12-01T11:18:17.169Z,12
2022-12-01T11:19:20.514Z,11
2022-12-01T11:20:17.215Z,12
2022-12-01T11:21:17.249Z,15
2022-12-01T11:22:17.192Z,12
2022-12-01T11:23:17.176Z,13
2022-12-01T11:25:17.188Z,13
2022-12-01T11:26:17.207Z,10
2022-12-01T11:27:17.174Z,13
2022-12-01T11:28:17.255Z,11
2022-12-01T11:29:17.184Z,12
2022-12-01T11:30:17.212Z,12
2022-12-01T11:31:17.225Z,15
2022-12-01T11:32:17.290Z,15
2022-12-01T11:33:17.176Z,12
2022-12-01T11:34:17.188Z,13
2022-12-01T11:35:17.189Z,12
2022-12-01T11:36:17.190Z,14
2022-12-01T11:37:17.193Z,14
2022-12-01T11:38:32.568Z,16
2022-12-01T11:39:17.201Z,15
2022-12-01T11:40:17.178Z,13
2022-12-01T11:41:17.176Z,14
2022-12-01T11:42:17.184Z,16
2022-12-01T11:43:17.190Z,17
2022-12-01T11:44:35.658Z,17
2022-12-01T11:45:17.187Z,15
2022-12-01T11:46:17.233Z,15
2022-12-01T11:47:24.572Z,15
2022-12-01T11:48:17.194Z,17
2022-12-01T11:49:17.182Z,17
2022-12-01T11:50:17.199Z,17
2022-12-01T11:51:17.184Z,18
2022-12-01T11:52:17.182Z,20
2022-12-01T11:53:17.193Z,18
2022-12-01T11:54:17.190Z,21
2022-12-01T11:55:17.181Z,19
2022-12-01T11:56:17.198Z,17
2022-12-01T11:57:33.786Z,17
2022-12-01T11:58:17.187Z,18
2022-12-01T11:59:17.184Z,19
2022-12-01T12:00:17.192Z,18
2022-12-01T12:01:21.803Z,18
2022-12-01T12:02:17.253Z,18
2022-12-01T12:03:17.228Z,16
2022-12-01T12:04:17.188Z,19
2022-12-01T12:05:17.226Z,21
2022-12-01T12:06:39.473Z,23
2022-12-01T12:07:17.190Z,22
2022-12-01T12:08:17.183Z,21
2022-12-01T12:09:17.175Z,20
2022-12-01T12:10:17.275Z,20
2022-12-01T12:11:17.383Z,21
2022-12-01T12:12:17.233Z,23
2022-12-01T12:13:17.173Z,21
2022-12-01T12:14:17.178Z,20
2022-12-01T12:15:17.193Z,21
2022-12-01T12:16:17.211Z,21
2022-12-01T12:17:17.284Z,17
2022-12-01T12:18:17.199Z,20
2022-12-01T12:19:17.248Z,19
2022-12-01T12:20:17.659Z,21
2022-12-01T12:21:17.187Z,22
2022-12-01T12:22:17.175Z,22
2022-12-01T12:23:17.182Z,21
2022-12-01T12:24:17.175Z,22
2022-12-01T12:25:17.184Z,17
2022-12-01T12:26:17.198Z,23
2022-12-01T12:27:17.173Z,25
2022-12-01T12:28:17.259Z,23
2022-12-01T12:29:17.197Z,22
2022-12-01T12:30:17.250Z,24
2022-12-01T12:31:17.216Z,21
2022-12-01T12:32:17.211Z,22
2022-12-01T12:33:17.195Z,22
2022-12-01T12:34:17.192Z,24
2022-12-01T12:35:17.176Z,25
2022-12-01T12:36:17.191Z,26
2022-12-01T12:37:17.417Z,25
2022-12-01T12:38:27.194Z,23
2022-12-01T12:39:17.298Z,22
2022-12-01T12:40:17.226Z,24
2022-12-01T12:41:17.180Z,25
2022-12-01T12:42:17.184Z,27
2022-12-01T12:43:17.175Z,26
2022-12-01T12:44:17.182Z,27
2022-12-01T12:45:17.178Z,24
2022-12-01T12:46:17.275Z,24
2022-12-01T12:47:17.195Z,28
2022-12-01T12:48:17.175Z,27
2022-12-01T12:49:20.907Z,26
2022-12-01T12:50:17.242Z,26
2022-12-01T12:51:17.177Z,24
2022-12-01T12:52:17.189Z,27
2022-12-01T12:54:17.227Z,29
2022-12-01T12:55:17.191Z,29
2022-12-01T12:56:17.182Z,26
2022-12-01T12:57:17.181Z,27
2022-12-01T12:58:17.186Z,29
2022-12-01T12:59:17.191Z,32
2022-12-01T13:00:17.244Z,29
2022-12-01T13:01:17.262Z,24
2022-12-01T13:02:17.261Z,31
2022-12-01T13:03:17.221Z,30
2022-12-01T13:04:17.192Z,28
2022-12-01T13:05:17.179Z,33
2022-12-01T13:06:17.172Z,30
2022-12-01T13:07:17.174Z,30
2022-12-01T13:08:17.178Z,29
2022-12-01T13:09:17.187Z,29
2022-12-01T13:10:17.179Z,30
2022-12-01T13:11:17.186Z,29
2022-12-01T13:12:17.176Z,28
2022-12-01T13:13:17.174Z,31
2022-12-01T13:14:17.176Z,28
2022-12-01T13:15:17.199Z,29
2022-12-01T13:16:17.207Z,29
2022-12-01T13:17:17.181Z,35
2022-12-01T13:18:17.182Z,31
2022-12-01T13:19:17.185Z,33
2022-12-01T13:20:17.172Z,29
2022-12-01T13:21:17.285Z,32
2022-12-01T13:22:17.189Z,31
2022-12-01T13:23:17.181Z,33
2022-12-01T13:24:22.570Z,33
2022-12-01T13:25:17.192Z,29
2022-12-01T13:26:17.178Z,31
2022-12-01T13:27:17.169Z,29
2022-12-01T13:28:17.321Z,30
2022-12-01T13:29:17.200Z,30
2022-12-01T13:30:17.173Z,32
2022-12-01T13:31:17.206Z,30
2022-12-01T13:32:17.187Z,34
2022-12-01T13:33:17.175Z,32
2022-12-01T13:34:17.210Z,34
2022-12-01T13:35:17.242Z,34
2022-12-01T13:37:17.190Z,32
2022-12-01T13:38:17.175Z,32
2022-12-01T13:39:17.181Z,31
2022-12-01T13:40:17.184Z,32
2022-12-01T13:41:17.174Z,33
2022-12-01T13:42:17.170Z,34
2022-12-01T13:43:17.172Z,34
2022-12-01T13:44:20.120Z,32
2022-12-01T13:45:17.180Z,33
2022-12-01T13:46:17.236Z,33
2022-12-01T13:47:17.176Z,34
2022-12-01T13:48:39.677Z,32
2022-12-01T13:49:17.198Z,36
2022-12-01T13:50:17.181Z,34
2022-12-01T13:51:17.184Z,33
2022-12-01T13:52:17.203Z,34
2022-12-01T13:53:17.227Z,31
2022-12-01T13:54:17.169Z,36
2022-12-01T13:55:17.181Z,32
2022-12-01T13:56:17.179Z,35
2022-12-01T13:57:17.173Z,36
2022-12-01T13:58:17.167Z,36
2022-12-01T13:59:17.196Z,33
2022-12-01T14:00:17.316Z,34
2022-12-01T14:01:17.265Z,35
2022-12-01T14:02:17.334Z,34
2022-12-01T14:03:17.284Z,34
2022-12-01T14:04:17.181Z,36
2022-12-01T14:05:17.208Z,35
2022-12-01T14:06:17.171Z,35
2022-12-01T14:07:17.171Z,33
2022-12-01T14:08:22.794Z,33
2022-12-01T14:09:17.178Z,33
2022-12-01T14:10:17.186Z,34
2022-12-01T14:11:17.186Z,33
2022-12-01T14:12:17.180Z,34
2022-12-01T14:13:17.195Z,33
2022-12-01T14:14:21.232Z,31
2022-12-01T14:15:17.196Z,32
2022-12-01T14:16:17.320Z,31
2022-12-01T14:17:17.189Z,33
2022-12-01T14:18:17.193Z,33
2022-12-01T14:19:17.188Z,35
2022-12-01T14:20:17.170Z,29
2022-12-01T14:21:17.175Z,31
2022-12-01T14:22:17.185Z,34
2022-12-01T14:23:17.184Z,31
2022-12-01T14:24:17.207Z,35
2022-12-01T14:25:17.181Z,32
2022-12-01T14:26:17.183Z,31
2022-12-01T14:27:17.215Z,33